Time;durP1;ratioP1;P1;durP2;ratioP2;P2;SDS_P1;SDS_P2;PMS_P1;PMS_P2;Temp;Humidity;BMP_temperature;BMP_pressure;BME280_temperature;BME280_humidity;BME280_pressure;Samples;Min_cycle;Max_cycle;Signal;HPM_P1;HPM_P2
2023/03/27 00:00:15;;;;;;;;;;;;;;;10.32;nan;100544.94;5051311;28;19920;-85
2023/03/27 00:02:40;;;;;;;;;;;;;;;10.35;nan;100547.09;5036478;28;19943;-85
2023/03/27 00:05:06;;;;;;;;;;;;;;;10.36;nan;100550.59;5051206;28;19917;-84
2023/03/27 00:07:34;;;;;;;;;;;;;;;10.37;nan;100550.31;5047002;28;19975;-84
2023/03/27 00:10:00;;;;;;;;;;;;;;;10.34;nan;100548.16;5048458;28;20011;-85
2023/03/27 00:12:26;;;;;;;;;;;;;;;10.34;nan;100548.16;5047828;28;20229;-85
2023/03/27 00:14:52;;;;;;;;;;;;;;;10.33;nan;100554.56;5050680;28;20204;-85
2023/03/27 00:17:18;;;;;;;;;;;;;;;10.31;nan;100556.69;5049099;28;19967;-84
2023/03/27 00:19:43;;;;;;;;;;;;;;;10.19;nan;100559.47;5048947;28;20285;-85
2023/03/27 00:22:09;;;;;;;;;;;;;;;10.10;nan;100557.50;5049240;28;19920;-85
2023/03/27 00:24:35;;;;;;;;;;;;;;;10.06;nan;100556.38;5044287;28;19917;-86
2023/03/27 00:27:01;;;;;;;;;;;;;;;10.09;nan;100567.41;5043316;28;19927;-86
2023/03/27 00:29:27;;;;;;;;;;;;;;;10.03;nan;100557.66;5045238;28;20026;-86
2023/03/27 00:31:52;;;;;;;;;;;;;;;9.95;nan;100566.94;5044358;28;19920;-85
2023/03/27 00:34:17;;;;;;;;;;;;;;;9.91;nan;100568.50;5047612;28;20388;-87
2023/03/27 00:36:47;;;;;;;;;;;;;;;9.88;nan;100570.88;5046695;28;19921;-85
2023/03/27 00:39:13;;;;;;;;;;;;;;;9.77;nan;100577.13;5044679;28;19917;-85
2023/03/27 00:41:38;;;;;;;;;;;;;;;9.76;nan;100583.53;5046856;28;19916;-85
2023/03/27 00:44:19;;;;;;;;;;;;;;;9.74;nan;100597.16;5045920;28;20405;-86
2023/03/27 00:46:44;;;;;;;;;;;;;;;9.74;nan;100597.16;5042480;28;19942;-85
2023/03/27 00:49:11;;;;;;;;;;;;;;;9.74;nan;100601.72;5046132;28;19924;-85
2023/03/27 00:51:39;;;;;;;;;;;;;;;9.67;nan;100600.00;5046262;28;19915;-85
2023/03/27 00:54:05;;;;;;;;;;;;;;;9.61;nan;100602.84;5044576;28;19921;-85
2023/03/27 00:56:32;;;;;;;;;;;;;;;9.56;nan;100600.09;5044219;28;20295;-86
2023/03/27 00:59:00;;;;;;;;;;;;;;;9.53;nan;100601.41;5046279;28;20325;-84
2023/03/27 01:01:27;;;;;;;;;;;;;;;9.49;nan;100602.94;5049768;28;20006;-86
2023/03/27 01:03:53;;;;;;;;;;;;;;;9.47;nan;100606.91;5045393;28;19927;-87
2023/03/27 01:06:19;;;;;;;;;;;;;;;9.46;nan;100611.44;5049847;28;20213;-85
2023/03/27 01:08:45;;;;;;;;;;;;;;;9.43;nan;100611.94;5051360;28;19975;-85
2023/03/27 01:11:13;;;;;;;;;;;;;;;9.42;nan;100607.66;5044037;28;20345;-85
2023/03/27 01:13:41;;;;;;;;;;;;;;;9.38;nan;100610.00;5049929;28;19917;-85
2023/03/27 01:16:25;;;;;;;;;;;;;;;9.39;nan;100613.47;5047461;28;19932;-85
2023/03/27 01:19:04;;;;;;;;;;;;;;;9.36;nan;100617.47;5046190;28;19960;-85
2023/03/27 01:21:55;;;;;;;;;;;;;;;9.35;nan;100621.19;5045825;28;20340;-86
2023/03/27 01:24:20;;;;;;;;;;;;;;;9.33;nan;100622.47;5021741;28;19921;-86
2023/03/27 01:27:05;;;;;;;;;;;;;;;9.24;nan;100627.41;5044512;28;19924;-85
2023/03/27 01:29:39;;;;;;;;;;;;;;;9.15;nan;100625.34;5042821;28;19921;-85
2023/03/27 01:32:14;;;;;;;;;;;;;;;9.09;nan;100632.50;5045039;28;19917;-85
2023/03/27 01:34:53;;;;;;;;;;;;;;;9.06;nan;100628.44;5042302;28;20411;-85
2023/03/27 01:37:37;;;;;;;;;;;;;;;9.15;nan;100638.72;5044013;28;19932;-84
2023/03/27 01:40:29;;;;;;;;;;;;;;;9.18;nan;100631.06;5041442;28;19960;-84
2023/03/27 01:42:54;;;;;;;;;;;;;;;9.15;nan;100639.53;5024550;28;19935;-85
2023/03/27 01:45:22;;;;;;;;;;;;;;;9.09;nan;100645.84;5043317;28;19924;-84
2023/03/27 01:47:48;;;;;;;;;;;;;;;9.03;nan;100655.66;5044655;28;19928;-85
2023/03/27 01:50:36;;;;;;;;;;;;;;;9.03;nan;100649.50;5044598;28;19916;-85
2023/03/27 01:53:04;;;;;;;;;;;;;;;9.04;nan;100651.13;5045072;28;19920;-84
2023/03/27 01:55:33;;;;;;;;;;;;;;;9.08;nan;100654.91;5041775;28;19932;-85
2023/03/27 01:58:02;;;;;;;;;;;;;;;9.08;nan;100653.06;5043902;28;20010;-84
2023/03/27 02:00:29;;;;;;;;;;;;;;;9.06;nan;100654.34;5041791;28;19920;-85
2023/03/27 02:02:58;;;;;;;;;;;;;;;9.06;nan;100660.50;5043218;28;19923;-85
2023/03/27 02:05:23;;;;;;;;;;;;;;;9.07;nan;100658.66;5041826;28;20017;-84
2023/03/27 02:07:52;;;;;;;;;;;;;;;9.04;nan;100662.63;5035159;28;19932;-85
2023/03/27 02:10:24;;;;;;;;;;;;;;;8.97;nan;100663.78;5037781;28;19924;-85
2023/03/27 02:12:53;;;;;;;;;;;;;;;8.92;nan;100661.03;5042060;28;19920;-86
2023/03/27 02:15:20;;;;;;;;;;;;;;;8.88;nan;100666.06;5044368;28;19916;-85
2023/03/27 02:17:48;;;;;;;;;;;;;;;8.88;nan;100673.25;5044345;28;19935;-86
2023/03/27 02:20:15;;;;;;;;;;;;;;;8.89;nan;100677.56;5046140;28;19921;-85
2023/03/27 02:22:44;;;;;;;;;;;;;;;8.91;nan;100678.13;5045573;28;20390;-85
2023/03/27 02:25:22;;;;;;;;;;;;;;;8.88;nan;100683.94;5028006;28;20300;-84
2023/03/27 02:27:50;;;;;;;;;;;;;;;8.85;nan;100682.56;5044996;28;19928;-85
2023/03/27 02:30:35;;;;;;;;;;;;;;;8.82;nan;100693.72;5045712;28;20062;-85
2023/03/27 02:33:24;;;;;;;;;;;;;;;8.83;nan;100699.88;5044165;28;19992;-85
2023/03/27 02:35:59;;;;;;;;;;;;;;;8.86;nan;100689.53;5016447;28;19917;-85
2023/03/27 02:38:30;;;;;;;;;;;;;;;8.89;nan;100688.25;5046353;28;19935;-85
2023/03/27 02:40:58;;;;;;;;;;;;;;;8.88;nan;100687.44;5044979;28;19924;-85
2023/03/27 02:43:34;;;;;;;;;;;;;;;8.88;nan;100692.78;5030457;28;19944;-85
2023/03/27 02:46:15;;;;;;;;;;;;;;;8.87;nan;100701.03;5045640;28;19920;-85
2023/03/27 02:49:08;;;;;;;;;;;;;;;8.81;nan;100691.31;5049330;28;20390;-85
2023/03/27 02:51:37;;;;;;;;;;;;;;;8.75;nan;100698.38;5044198;28;19952;-84
2023/03/27 02:54:12;;;;;;;;;;;;;;;8.71;nan;100713.28;5047057;28;19923;-85
2023/03/27 02:56:42;;;;;;;;;;;;;;;8.70;nan;100714.31;5049844;28;19917;-85
2023/03/27 02:59:13;;;;;;;;;;;;;;;8.64;nan;100717.94;5047387;28;19921;-85
2023/03/27 03:01:40;;;;;;;;;;;;;;;8.62;nan;100728.88;5047447;28;19917;-86
2023/03/27 03:04:09;;;;;;;;;;;;;;;8.61;nan;100734.41;5047885;28;19929;-84
2023/03/27 03:06:35;;;;;;;;;;;;;;;8.55;nan;100722.81;5045902;28;20346;-84
2023/03/27 03:09:05;;;;;;;;;;;;;;;8.58;nan;100734.88;5044868;28;20027;-85
2023/03/27 03:11:32;;;;;;;;;;;;;;;8.62;nan;100744.06;5048216;28;19933;-84
2023/03/27 03:13:57;;;;;;;;;;;;;;;8.64;nan;100739.31;5045906;28;21720;-86
2023/03/27 03:16:23;;;;;;;;;;;;;;;8.60;nan;100746.97;5047134;28;19925;-85
2023/03/27 03:18:48;;;;;;;;;;;;;;;8.56;nan;100751.16;5045405;28;20299;-85
2023/03/27 03:21:14;;;;;;;;;;;;;;;8.58;nan;100754.41;5048121;28;19992;-85
2023/03/27 03:23:39;;;;;;;;;;;;;;;8.61;nan;100748.56;5031791;28;19928;-85
2023/03/27 03:26:05;;;;;;;;;;;;;;;8.65;nan;100752.44;5028771;28;19920;-86
2023/03/27 03:28:33;;;;;;;;;;;;;;;8.68;nan;100757.28;5050781;28;19990;-85
2023/03/27 03:31:01;;;;;;;;;;;;;;;8.71;nan;100756.81;5046918;28;19924;-85
2023/03/27 03:33:28;;;;;;;;;;;;;;;8.68;nan;100765.31;5045454;28;19927;-85
2023/03/27 03:35:57;;;;;;;;;;;;;;;8.67;nan;100774.38;5043706;28;20697;-85
2023/03/27 03:38:26;;;;;;;;;;;;;;;8.69;nan;100772.28;5047968;28;19925;-85
2023/03/27 03:40:55;;;;;;;;;;;;;;;8.69;nan;100782.16;5048572;28;19926;-85
2023/03/27 03:43:21;;;;;;;;;;;;;;;8.69;nan;100777.63;5048023;28;20024;-85
2023/03/27 03:45:47;;;;;;;;;;;;;;;8.69;nan;100782.97;5048813;28;19933;-85
2023/03/27 03:48:13;;;;;;;;;;;;;;;8.64;nan;100780.19;5049144;28;19943;-84
2023/03/27 03:50:38;;;;;;;;;;;;;;;8.61;nan;100791.31;5051454;28;20054;-86
2023/03/27 03:53:03;;;;;;;;;;;;;;;8.59;nan;100785.38;5048997;28;20325;-85
2023/03/27 03:55:29;;;;;;;;;;;;;;;8.59;nan;100781.91;5049921;28;19921;-85
2023/03/27 03:57:54;;;;;;;;;;;;;;;8.58;nan;100785.63;5048599;28;19920;-84
2023/03/27 04:00:21;;;;;;;;;;;;;;;8.53;nan;100789.00;5048930;28;19916;-85
2023/03/27 04:02:48;;;;;;;;;;;;;;;8.45;nan;100787.50;5050524;28;20770;-85
2023/03/27 04:05:13;;;;;;;;;;;;;;;8.44;nan;100788.56;5031329;28;19928;-84
2023/03/27 04:07:39;;;;;;;;;;;;;;;8.44;nan;100798.44;5049455;28;19917;-85
2023/03/27 04:10:05;;;;;;;;;;;;;;;8.43;nan;100808.25;5048081;28;19929;-85
2023/03/27 04:12:30;;;;;;;;;;;;;;;8.38;nan;100808.16;5048540;28;19917;-85
2023/03/27 04:14:56;;;;;;;;;;;;;;;8.34;nan;100812.34;5048320;28;20033;-85
2023/03/27 04:17:25;;;;;;;;;;;;;;;8.32;nan;100809.06;5048598;28;19982;-85
2023/03/27 04:19:53;;;;;;;;;;;;;;;8.32;nan;100811.72;5046500;28;19948;-85
2023/03/27 04:22:21;;;;;;;;;;;;;;;8.28;nan;100817.78;5048463;28;19998;-84
2023/03/27 04:24:49;;;;;;;;;;;;;;;8.26;nan;100817.16;5030326;28;19917;-87
2023/03/27 04:27:15;;;;;;;;;;;;;;;8.16;nan;100821.22;5046869;28;19931;-84
2023/03/27 04:29:42;;;;;;;;;;;;;;;8.07;nan;100822.59;5035045;28;19917;-84
2023/03/27 04:32:08;;;;;;;;;;;;;;;7.98;nan;100828.50;5046524;28;19990;-85
2023/03/27 04:34:37;;;;;;;;;;;;;;;7.97;nan;100826.88;5048775;28;19913;-85
2023/03/27 04:37:03;;;;;;;;;;;;;;;7.93;nan;100836.38;5048300;28;19921;-87
2023/03/27 04:39:28;;;;;;;;;;;;;;;7.91;nan;100835.81;5034683;28;19923;-85
2023/03/27 04:41:53;;;;;;;;;;;;;;;7.91;nan;100841.97;5050535;28;20003;-85
2023/03/27 04:44:20;;;;;;;;;;;;;;;7.89;nan;100842.16;5049331;28;20016;-84
2023/03/27 04:46:49;;;;;;;;;;;;;;;7.86;nan;100842.63;5049926;28;19917;-84
2023/03/27 04:49:19;;;;;;;;;;;;;;;7.79;nan;100841.91;5050992;28;19986;-85
2023/03/27 04:51:45;;;;;;;;;;;;;;;7.73;nan;100836.69;5050687;28;19912;-85
2023/03/27 04:54:10;;;;;;;;;;;;;;;7.69;nan;100846.16;5051646;28;19917;-85
2023/03/27 04:56:36;;;;;;;;;;;;;;;7.73;nan;100836.69;5049850;28;19943;-84
2023/03/27 04:59:02;;;;;;;;;;;;;;;7.70;nan;100847.78;5056018;28;20014;-84
2023/03/27 05:01:28;;;;;;;;;;;;;;;7.66;nan;100863.44;5051057;28;19924;-85
2023/03/27 05:03:53;;;;;;;;;;;;;;;7.66;nan;100866.09;5048932;28;20393;-85
2023/03/27 05:06:19;;;;;;;;;;;;;;;7.65;nan;100863.66;5048751;28;19917;-85
2023/03/27 05:08:44;;;;;;;;;;;;;;;7.64;nan;100859.34;5048240;28;19924;-85
2023/03/27 05:11:10;;;;;;;;;;;;;;;7.64;nan;100862.03;5047595;28;19928;-84
2023/03/27 05:13:35;;;;;;;;;;;;;;;7.59;nan;100868.03;5049000;28;19921;-84
2023/03/27 05:16:01;;;;;;;;;;;;;;;7.59;nan;100873.38;5049374;28;19999;-85
2023/03/27 05:18:30;;;;;;;;;;;;;;;7.62;nan;100878.25;5045889;28;19955;-84
2023/03/27 05:20:56;;;;;;;;;;;;;;;7.58;nan;100880.56;5046396;28;19916;-85
2023/03/27 05:23:21;;;;;;;;;;;;;;;7.52;nan;100884.09;5047537;28;19924;-84
2023/03/27 05:25:47;;;;;;;;;;;;;;;7.53;nan;100887.59;5047838;28;20369;-85
2023/03/27 05:28:12;;;;;;;;;;;;;;;7.52;nan;100897.44;5048359;28;19917;-84
2023/03/27 05:30:37;;;;;;;;;;;;;;;7.52;nan;100905.44;5050515;28;19917;-85
2023/03/27 05:33:03;;;;;;;;;;;;;;;7.55;nan;100910.34;5048389;28;19942;-84
2023/03/27 05:35:28;;;;;;;;;;;;;;;7.57;nan;100918.13;5049673;28;19939;-84
2023/03/27 05:37:55;;;;;;;;;;;;;;;7.64;nan;100918.03;5051349;28;19916;-84
2023/03/27 05:40:21;;;;;;;;;;;;;;;7.70;nan;100917.13;5048997;28;20409;-84
2023/03/27 05:42:47;;;;;;;;;;;;;;;7.75;nan;100919.94;5040245;28;19917;-86
2023/03/27 05:45:13;;;;;;;;;;;;;;;7.74;nan;100934.31;5047687;28;19920;-84
2023/03/27 05:47:50;;;;;;;;;;;;;;;7.74;nan;100934.31;5047874;28;19943;-87
2023/03/27 05:50:16;;;;;;;;;;;;;;;7.78;nan;100935.50;5049030;28;20337;-84
2023/03/27 05:52:42;;;;;;;;;;;;;;;7.83;nan;100939.09;5048251;28;20022;-85
2023/03/27 05:55:09;;;;;;;;;;;;;;;7.90;nan;100944.38;5046854;28;20575;-87
2023/03/27 05:57:38;;;;;;;;;;;;;;;7.95;nan;100949.84;5046921;28;20325;-85
2023/03/27 06:00:09;;;;;;;;;;;;;;;7.99;nan;100942.19;5050235;28;19940;-85
2023/03/27 06:02:35;;;;;;;;;;;;;;;8.08;nan;100952.34;5045531;28;19925;-86
2023/03/27 06:05:00;;;;;;;;;;;;;;;8.15;nan;100958.38;5046905;28;19920;-85
2023/03/27 06:07:27;;;;;;;;;;;;;;;8.18;nan;100957.13;5027345;28;20020;-85
2023/03/27 06:09:52;;;;;;;;;;;;;;;8.22;nan;100957.47;5047136;28;19991;-85
2023/03/27 06:12:18;;;;;;;;;;;;;;;8.23;nan;100959.09;5045612;28;20043;-85
2023/03/27 06:14:43;;;;;;;;;;;;;;;8.27;nan;100961.09;5046133;28;19963;-85
2023/03/27 06:17:09;;;;;;;;;;;;;;;8.32;nan;100965.75;5043760;28;20013;-85
2023/03/27 06:19:35;;;;;;;;;;;;;;;8.39;nan;100969.16;5046579;28;19923;-85
2023/03/27 06:22:00;;;;;;;;;;;;;;;8.48;nan;100981.16;5047133;28;20421;-86
2023/03/27 06:24:26;;;;;;;;;;;;;;;8.58;nan;100978.72;5045545;28;20012;-85
2023/03/27 06:26:54;;;;;;;;;;;;;;;8.55;nan;100976.53;5045453;28;19916;-85
2023/03/27 06:29:20;;;;;;;;;;;;;;;8.62;nan;100985.25;5044412;28;19916;-85
2023/03/27 06:31:45;;;;;;;;;;;;;;;8.64;nan;100985.84;5046865;28;19971;-85
2023/03/27 06:34:13;;;;;;;;;;;;;;;8.68;nan;100989.69;5044803;28;19917;-85
2023/03/27 06:36:39;;;;;;;;;;;;;;;8.74;nan;100999.44;5047762;28;19952;-85
2023/03/27 06:39:05;;;;;;;;;;;;;;;8.86;nan;100993.31;5045573;28;20406;-85
2023/03/27 06:41:30;;;;;;;;;;;;;;;8.92;nan;100997.72;5045720;28;20432;-85
2023/03/27 06:43:56;;;;;;;;;;;;;;;8.96;nan;101001.56;5029893;28;20007;-85
2023/03/27 06:46:21;;;;;;;;;;;;;;;9.07;nan;101006.91;5047602;28;19921;-85
2023/03/27 06:48:49;;;;;;;;;;;;;;;9.11;nan;101003.78;5048245;28;19921;-85
2023/03/27 06:51:15;;;;;;;;;;;;;;;9.19;nan;101004.25;5044628;28;19983;-85
2023/03/27 06:53:41;;;;;;;;;;;;;;;9.25;nan;101011.34;5028627;28;20395;-85
2023/03/27 06:56:06;;;;;;;;;;;;;;;9.36;nan;101015.88;5046619;28;19956;-86
2023/03/27 06:58:32;;;;;;;;;;;;;;;9.46;nan;101017.97;5044492;28;19916;-85
2023/03/27 07:00:57;;;;;;;;;;;;;;;9.46;nan;101009.94;5044727;28;20605;-85
2023/03/27 07:03:24;;;;;;;;;;;;;;;9.52;nan;101017.03;5041998;28;20187;-86
2023/03/27 07:05:49;;;;;;;;;;;;;;;9.52;nan;101022.41;5044694;28;19913;-86
2023/03/27 07:08:16;;;;;;;;;;;;;;;9.55;nan;101021.91;5030085;28;20006;-85
2023/03/27 07:10:43;;;;;;;;;;;;;;;9.62;nan;101025.28;5043682;28;19917;-85
2023/03/27 07:13:08;;;;;;;;;;;;;;;9.65;nan;101023.97;5043963;28;19952;-85
2023/03/27 07:15:35;;;;;;;;;;;;;;;9.77;nan;101040.84;5041950;28;19971;-87
2023/03/27 07:18:08;;;;;;;;;;;;;;;9.91;nan;101039.53;5042216;28;20420;-85
2023/03/27 07:20:34;;;;;;;;;;;;;;;9.97;nan;101051.97;5043757;28;20563;-87
2023/03/27 07:23:00;;;;;;;;;;;;;;;9.92;nan;101043.03;5042201;28;19920;-86
2023/03/27 07:25:26;;;;;;;;;;;;;;;9.97;nan;101056.50;5045136;28;19975;-85
2023/03/27 07:27:56;;;;;;;;;;;;;;;9.91;nan;101047.56;5027062;28;19917;-85
2023/03/27 07:30:24;;;;;;;;;;;;;;;10.07;nan;101062.09;5045996;28;19931;-90
2023/03/27 07:32:50;;;;;;;;;;;;;;;10.18;nan;101068.44;5042311;28;19986;-86
2023/03/27 07:35:15;;;;;;;;;;;;;;;10.24;nan;101072.91;5044606;28;19925;-85
2023/03/27 07:37:41;;;;;;;;;;;;;;;10.32;nan;101067.16;5046035;28;21793;-85
2023/03/27 07:40:07;;;;;;;;;;;;;;;10.41;nan;101068.41;5043006;28;19925;-85
2023/03/27 07:42:33;;;;;;;;;;;;;;;10.45;nan;101080.28;5045358;28;20019;-87
2023/03/27 07:44:59;;;;;;;;;;;;;;;10.49;nan;101078.75;5045665;28;19999;-87
2023/03/27 07:47:24;;;;;;;;;;;;;;;10.61;nan;101076.00;5047070;28;20430;-85
2023/03/27 07:49:50;;;;;;;;;;;;;;;10.76;nan;101081.63;5047973;28;19924;-88
2023/03/27 07:52:15;;;;;;;;;;;;;;;10.77;nan;101083.28;5046362;28;19921;-85
2023/03/27 07:54:41;;;;;;;;;;;;;;;10.72;nan;101085.03;5047395;28;20101;-87
2023/03/27 07:57:07;;;;;;;;;;;;;;;10.74;nan;101080.25;5047878;28;19932;-86
2023/03/27 07:59:32;;;;;;;;;;;;;;;10.73;nan;101092.03;5048225;28;19970;-87
2023/03/27 08:01:58;;;;;;;;;;;;;;;10.80;nan;101090.03;5048247;28;20161;-86
2023/03/27 08:04:23;;;;;;;;;;;;;;;10.94;nan;101090.50;5048884;28;19921;-86
2023/03/27 08:06:50;;;;;;;;;;;;;;;11.03;nan;101091.75;5048807;28;19924;-86
2023/03/27 08:09:16;;;;;;;;;;;;;;;11.16;nan;101092.25;5032428;28;19921;-86
2023/03/27 08:11:43;;;;;;;;;;;;;;;11.36;nan;101099.00;5033123;28;19917;-88
2023/03/27 08:14:08;;;;;;;;;;;;;;;11.39;nan;101085.09;5047591;28;19935;-86
2023/03/27 08:16:34;;;;;;;;;;;;;;;11.38;nan;101102.25;5049699;28;19920;-86
2023/03/27 08:19:01;;;;;;;;;;;;;;;11.38;nan;101096.88;5047196;28;20004;-86
2023/03/27 08:21:27;;;;;;;;;;;;;;;11.41;nan;101109.81;5046925;28;19966;-88
2023/03/27 08:23:54;;;;;;;;;;;;;;;11.30;nan;101110.69;5047799;28;19920;-86
2023/03/27 08:26:19;;;;;;;;;;;;;;;11.12;nan;101111.72;5047936;28;19920;-87
2023/03/27 08:28:45;;;;;;;;;;;;;;;11.11;nan;101121.66;5048246;28;19921;-86
2023/03/27 08:31:14;;;;;;;;;;;;;;;11.19;nan;101115.09;5048093;28;19956;-86
2023/03/27 08:33:40;;;;;;;;;;;;;;;11.36;nan;101118.59;5048924;28;19927;-86
2023/03/27 08:36:07;;;;;;;;;;;;;;;11.65;nan;101121.16;5048151;28;20657;-86
2023/03/27 08:38:32;;;;;;;;;;;;;;;11.85;nan;101118.84;5029846;28;19921;-87
2023/03/27 08:40:59;;;;;;;;;;;;;;;11.93;nan;101129.13;5047250;28;20401;-87
2023/03/27 08:43:26;;;;;;;;;;;;;;;11.93;nan;101131.00;5048347;28;19916;-86
2023/03/27 08:46:24;;;;;;;;;;;;;;;11.83;nan;101137.03;5047809;28;20000;-86
2023/03/27 08:49:08;;;;;;;;;;;;;;;11.84;nan;101143.22;5041241;28;19927;-87
2023/03/27 08:51:39;;;;;;;;;;;;;;;11.95;nan;101136.94;5046476;28;20027;-88
2023/03/27 08:54:12;;;;;;;;;;;;;;;12.14;nan;101137.47;5048792;28;20187;-85
2023/03/27 08:56:38;;;;;;;;;;;;;;;12.36;nan;101139.09;5045489;28;20041;-85
2023/03/27 08:59:09;;;;;;;;;;;;;;;12.48;nan;101136.28;5047509;28;20011;-87
2023/03/27 09:01:39;;;;;;;;;;;;;;;12.59;nan;101145.28;5046732;28;20083;-86
2023/03/27 09:04:08;;;;;;;;;;;;;;;12.71;nan;101140.56;5044821;28;19944;-86
2023/03/27 09:06:45;;;;;;;;;;;;;;;12.90;nan;101146.41;5044358;28;19917;-88
2023/03/27 09:09:10;;;;;;;;;;;;;;;13.02;nan;101150.56;5050350;28;19917;-85
2023/03/27 09:11:54;;;;;;;;;;;;;;;13.12;nan;101152.56;5045517;28;19986;-86
2023/03/27 09:14:32;;;;;;;;;;;;;;;13.05;nan;101156.50;5046379;28;19923;-86
2023/03/27 09:17:04;;;;;;;;;;;;;;;12.95;nan;101158.06;5044532;28;19931;-86
2023/03/27 09:20:19;;;;;;;;;;;;;;;12.82;nan;101155.75;5044719;28;19948;-86
2023/03/27 09:22:54;;;;;;;;;;;;;;;12.92;nan;101160.41;4985150;28;19980;-85
2023/03/27 09:25:38;;;;;;;;;;;;;;;13.12;nan;101162.50;5044377;28;20542;-86
2023/03/27 09:28:13;;;;;;;;;;;;;;;13.16;nan;101159.06;5047006;28;19970;-85
2023/03/27 09:30:39;;;;;;;;;;;;;;;13.26;nan;101174.50;5033364;28;19969;-87
2023/03/27 09:33:05;;;;;;;;;;;;;;;13.26;nan;101177.19;5045490;28;19921;-87
2023/03/27 09:35:31;;;;;;;;;;;;;;;13.22;nan;101179.59;5045511;28;20062;-87
2023/03/27 09:38:02;;;;;;;;;;;;;;;13.27;nan;101173.44;5046030;28;19963;-88
2023/03/27 09:40:41;;;;;;;;;;;;;;;13.43;nan;101172.50;5044155;28;19928;-86
2023/03/27 09:43:08;;;;;;;;;;;;;;;13.63;nan;101176.41;5043847;28;19925;-87
2023/03/27 09:45:36;;;;;;;;;;;;;;;13.53;nan;101186.06;5043694;28;19917;-87
2023/03/27 09:48:03;;;;;;;;;;;;;;;13.40;nan;101194.53;5044265;28;19920;-87
2023/03/27 09:50:43;;;;;;;;;;;;;;;13.39;nan;101192.13;5043848;28;19917;-86
2023/03/27 09:53:14;;;;;;;;;;;;;;;13.53;nan;101191.44;5042025;28;20401;-87
2023/03/27 09:55:51;;;;;;;;;;;;;;;13.72;nan;101185.66;5042258;28;19916;-88
2023/03/27 09:58:28;;;;;;;;;;;;;;;13.91;nan;101192.25;5045200;28;19925;-86
2023/03/27 10:01:14;;;;;;;;;;;;;;;14.02;nan;101202.03;5038510;28;19921;-86
2023/03/27 10:03:42;;;;;;;;;;;;;;;14.00;nan;101188.00;5042913;28;19920;-87
2023/03/27 10:06:10;;;;;;;;;;;;;;;14.07;nan;101196.66;5044578;28;20301;-87
2023/03/27 10:08:37;;;;;;;;;;;;;;;14.09;nan;101205.31;5044127;28;19983;-86
2023/03/27 10:11:05;;;;;;;;;;;;;;;14.07;nan;101210.16;5049338;28;19920;-84
2023/03/27 10:13:30;;;;;;;;;;;;;;;14.15;nan;101206.94;5053367;28;19917;-84
2023/03/27 10:15:58;;;;;;;;;;;;;;;14.27;nan;101212.16;5053170;28;19999;-84
2023/03/27 10:18:28;;;;;;;;;;;;;;;14.35;nan;101213.53;5047791;28;20394;-84
2023/03/27 10:20:55;;;;;;;;;;;;;;;14.42;nan;101211.41;5051646;28;19920;-84
2023/03/27 10:23:25;;;;;;;;;;;;;;;14.45;nan;101209.03;5042569;28;20314;-85
2023/03/27 10:25:51;;;;;;;;;;;;;;;14.50;nan;101216.34;5053273;28;19921;-85
2023/03/27 10:28:18;;;;;;;;;;;;;;;14.52;nan;101224.97;5047527;28;20311;-84
2023/03/27 10:30:43;;;;;;;;;;;;;;;14.50;nan;101227.13;5049059;28;19927;-84
2023/03/27 10:33:09;;;;;;;;;;;;;;;14.63;nan;101237.44;5047261;28;19916;-84
2023/03/27 10:35:42;;;;;;;;;;;;;;;14.79;nan;101233.72;5052509;28;20075;-84
2023/03/27 10:38:13;;;;;;;;;;;;;;;15.04;nan;101237.56;5047480;28;19929;-85
2023/03/27 10:40:39;;;;;;;;;;;;;;;15.13;nan;101236.00;5041354;28;19925;-84
2023/03/27 10:43:17;;;;;;;;;;;;;;;15.22;nan;101234.38;5050933;28;19931;-84
2023/03/27 10:45:48;;;;;;;;;;;;;;;15.42;nan;101239.81;5050323;28;19916;-85
2023/03/27 10:48:23;;;;;;;;;;;;;;;15.56;nan;101242.00;5055005;28;19921;-85
2023/03/27 10:50:52;;;;;;;;;;;;;;;15.54;nan;101250.38;5044577;28;19916;-85
2023/03/27 10:53:23;;;;;;;;;;;;;;;15.41;nan;101251.69;5044550;28;19917;-84
2023/03/27 10:55:53;;;;;;;;;;;;;;;15.21;nan;101264.34;5046638;28;19917;-84
2023/03/27 10:58:34;;;;;;;;;;;;;;;15.16;nan;101250.84;5048905;28;19948;-83
2023/03/27 11:01:22;;;;;;;;;;;;;;;15.33;nan;101248.72;5047483;28;19963;-84
2023/03/27 11:03:58;;;;;;;;;;;;;;;15.66;nan;101258.25;5039284;28;19924;-84
2023/03/27 11:06:28;;;;;;;;;;;;;;;15.71;nan;101260.94;5048403;28;19923;-85
2023/03/27 11:09:08;;;;;;;;;;;;;;;15.43;nan;101257.63;5043193;28;19921;-85
2023/03/27 11:11:39;;;;;;;;;;;;;;;15.27;nan;101274.91;5052079;28;19917;-85
2023/03/27 11:14:10;;;;;;;;;;;;;;;15.42;nan;101261.41;5047544;28;19924;-85
2023/03/27 11:16:36;;;;;;;;;;;;;;;15.59;nan;101265.78;5051551;28;19928;-85
2023/03/27 11:19:01;;;;;;;;;;;;;;;15.73;nan;101268.78;5049894;28;19920;-85
2023/03/27 11:21:33;;;;;;;;;;;;;;;15.81;nan;101257.44;5048319;28;19967;-84
2023/03/27 11:23:58;;;;;;;;;;;;;;;16.09;nan;101272.28;5046862;28;19959;-85
2023/03/27 11:27:03;;;;;;;;;;;;;;;16.16;nan;101275.53;5056398;28;19917;-85
2023/03/27 11:29:47;;;;;;;;;;;;;;;16.04;nan;101277.69;5008122;28;19924;-83
2023/03/27 11:32:27;;;;;;;;;;;;;;;16.10;nan;101276.59;5008567;28;19918;-84
2023/03/27 11:35:04;;;;;;;;;;;;;;;16.20;nan;101277.41;5039794;28;19928;-84
2023/03/27 11:37:46;;;;;;;;;;;;;;;16.29;nan;101269.53;5054536;28;19924;-84
2023/03/27 11:40:12;;;;;;;;;;;;;;;16.13;nan;101276.88;5055045;28;19917;-84
2023/03/27 11:42:42;;;;;;;;;;;;;;;16.02;nan;101276.09;5056172;28;20271;-85
2023/03/27 11:45:11;;;;;;;;;;;;;;;16.07;nan;101293.38;5055358;28;19917;-84
2023/03/27 11:48:08;;;;;;;;;;;;;;;16.30;nan;101292.81;5058339;28;19924;-84
2023/03/27 11:50:37;;;;;;;;;;;;;;;16.53;nan;101278.72;5013592;28;20314;-84
2023/03/27 11:53:02;;;;;;;;;;;;;;;16.55;nan;101287.34;5049792;28;19947;-84
2023/03/27 11:55:56;;;;;;;;;;;;;;;16.46;nan;101288.97;5052402;28;20425;-84
2023/03/27 11:58:31;;;;;;;;;;;;;;;16.40;nan;101291.97;5052356;28;19925;-86
2023/03/27 12:01:06;;;;;;;;;;;;;;;16.31;nan;101289.00;5051359;28;19929;-82
2023/03/27 12:03:51;;;;;;;;;;;;;;;16.43;nan;101286.84;5052773;28;19917;-83
2023/03/27 12:06:16;;;;;;;;;;;;;;;16.47;nan;101285.19;5058753;28;19966;-83
2023/03/27 12:09:00;;;;;;;;;;;;;;;16.52;nan;101281.69;5057308;28;19975;-83
2023/03/27 12:11:38;;;;;;;;;;;;;;;16.53;nan;101275.19;5060175;28;19931;-84
2023/03/27 12:14:25;;;;;;;;;;;;;;;16.56;nan;101286.28;5043614;28;20489;-83
2023/03/27 12:16:51;;;;;;;;;;;;;;;16.58;nan;101294.09;5054250;28;19931;-84
2023/03/27 12:19:49;;;;;;;;;;;;;;;16.57;nan;101287.88;5055470;28;20034;-84
2023/03/27 12:23:00;;;;;;;;;;;;;;;16.45;nan;101294.66;5057435;28;19970;-84
2023/03/27 12:25:28;;;;;;;;;;;;;;;16.52;nan;101295.22;5056596;28;19928;-84
2023/03/27 12:28:05;;;;;;;;;;;;;;;16.49;nan;101293.03;5057388;28;19981;-83
2023/03/27 12:30:37;;;;;;;;;;;;;;;16.66;nan;101287.31;5058066;28;19920;-85
2023/03/27 12:33:22;;;;;;;;;;;;;;;16.70;nan;101300.06;5048779;28;19943;-83
2023/03/27 12:35:50;;;;;;;;;;;;;;;16.52;nan;101296.03;5051672;28;20302;-85
2023/03/27 12:38:28;;;;;;;;;;;;;;;16.40;nan;101287.38;5043792;28;19929;-84
2023/03/27 12:41:02;;;;;;;;;;;;;;;16.34;nan;101293.91;5057433;28;19975;-84
2023/03/27 12:43:30;;;;;;;;;;;;;;;16.38;nan;101294.16;5057854;28;19927;-83
2023/03/27 12:46:13;;;;;;;;;;;;;;;16.50;nan;101298.16;5053873;28;19920;-84
2023/03/27 12:48:50;;;;;;;;;;;;;;;16.55;nan;101300.88;5054117;28;19920;-84
2023/03/27 12:51:18;;;;;;;;;;;;;;;16.56;nan;101294.38;5050778;28;19925;-84
2023/03/27 12:53:48;;;;;;;;;;;;;;;16.56;nan;101297.09;5054287;28;19915;-85
2023/03/27 12:56:16;;;;;;;;;;;;;;;16.51;nan;101288.97;5057528;28;20484;-83
2023/03/27 12:58:42;;;;;;;;;;;;;;;16.68;nan;101293.28;5048305;28;19925;-85
2023/03/27 13:01:12;;;;;;;;;;;;;;;16.78;nan;101288.66;5048214;28;19921;-83
2023/03/27 13:04:06;;;;;;;;;;;;;;;16.99;nan;101275.84;5053290;28;19921;-84
2023/03/27 13:06:50;;;;;;;;;;;;;;;17.11;nan;101280.94;5050744;28;19917;-83
2023/03/27 13:09:23;;;;;;;;;;;;;;;17.24;nan;101290.38;5044546;28;19917;-83
2023/03/27 13:11:56;;;;;;;;;;;;;;;17.24;nan;101293.06;5049946;28;19921;-84
2023/03/27 13:14:28;;;;;;;;;;;;;;;17.25;nan;101286.56;5049821;28;19928;-83
2023/03/27 13:17:13;;;;;;;;;;;;;;;17.29;nan;101282.19;5054272;28;19920;-83